createdAt,value
2022-09-20T00:01:23.206Z,7.22
2022-09-20T00:03:56.173Z,12.68
2022-09-20T00:06:29.245Z,7.93
2022-09-20T00:08:56.643Z,5.20
2022-09-20T00:11:26.153Z,2.67
2022-09-20T00:13:55.992Z,6.03
2022-09-20T00:16:28.724Z,5.20
2022-09-20T00:18:57.684Z,7.07
2022-09-20T00:21:27.414Z,5.75
2022-09-20T00:23:54.908Z,7.07
2022-09-20T00:26:21.779Z,5.75
2022-09-20T00:28:48.193Z,8.38
2022-09-20T00:31:15.197Z,3.88
2022-09-20T00:34:00.036Z,7.88
2022-09-20T00:36:29.686Z,6.32
2022-09-20T00:38:57.989Z,3.85
2022-09-20T00:41:25.042Z,7.78
2022-09-20T00:43:52.292Z,6.82
2022-09-20T00:46:43.119Z,4.78
2022-09-20T00:49:17.825Z,8.27
2022-09-20T00:51:48.944Z,5.38
2022-09-20T00:54:20.502Z,8.88
2022-09-20T00:56:48.209Z,7.15
2022-09-20T00:59:18.815Z,6.38
2022-09-20T01:01:49.535Z,6.65
2022-09-20T01:04:16.810Z,7.32
2022-09-20T01:06:45.525Z,7.03
2022-09-20T01:09:12.132Z,10.77
2022-09-20T01:11:40.948Z,6.47
2022-09-20T01:14:08.097Z,5.25
2022-09-20T01:16:36.550Z,5.85
2022-09-20T01:19:15.063Z,5.00
2022-09-20T01:21:41.656Z,4.88
2022-09-20T01:24:19.040Z,9.20
2022-09-20T01:27:06.658Z,7.95
2022-09-20T01:29:52.666Z,10.18
2022-09-20T01:32:24.410Z,4.95
2022-09-20T01:34:58.833Z,7.65
2022-09-20T01:37:38.375Z,5.25
2022-09-20T01:40:24.655Z,5.30
2022-09-20T01:43:08.072Z,6.00
2022-09-20T01:45:34.681Z,3.33
2022-09-20T01:48:35.657Z,8.10
2022-09-20T01:51:28.765Z,6.45
2022-09-20T01:54:13.863Z,6.78
2022-09-20T01:57:17.928Z,6.03
2022-09-20T01:59:55.322Z,5.38
2022-09-20T02:02:40.594Z,6.05
2022-09-20T02:05:23.161Z,8.40
2022-09-20T02:08:07.776Z,8.23
2022-09-20T02:10:58.943Z,6.85
2022-09-20T02:13:40.647Z,5.05
2022-09-20T02:16:41.792Z,8.50
2022-09-20T02:19:30.609Z,6.13
2022-09-20T02:22:34.353Z,5.18
2022-09-20T02:25:17.861Z,7.40
2022-09-20T02:28:01.993Z,8.23
2022-09-20T02:30:50.382Z,7.88
2022-09-20T02:34:18.819Z,7.82
2022-09-20T02:37:16.162Z,7.07
2022-09-20T02:40:05.401Z,5.03
2022-09-20T02:42:42.549Z,5.45
2022-09-20T02:45:17.830Z,6.25
2022-09-20T02:47:44.407Z,8.40
2022-09-20T02:50:35.181Z,6.88
2022-09-20T02:53:22.013Z,8.93
2022-09-20T02:56:17.576Z,7.47
2022-09-20T02:59:03.447Z,5.65
2022-09-20T03:02:04.603Z,5.82
2022-09-20T03:05:00.631Z,8.27
2022-09-20T03:07:41.453Z,4.32
2022-09-20T03:10:40.079Z,7.53
2022-09-20T03:13:22.685Z,10.63
2022-09-20T03:15:49.201Z,10.43
2022-09-20T03:18:19.446Z,6.85
2022-09-20T03:21:06.564Z,11.20
2022-09-20T03:23:46.966Z,7.63
2022-09-20T03:26:46.792Z,7.82
2022-09-20T03:29:31.417Z,6.28
2022-09-20T03:32:15.304Z,6.78
2022-09-20T03:35:16.903Z,9.95
2022-09-20T03:38:17.794Z,9.38
2022-09-20T03:41:05.192Z,7.55
2022-09-20T03:44:05.436Z,9.13
2022-09-20T03:46:45.148Z,8.90
2022-09-20T03:49:50.973Z,7.22
2022-09-20T03:52:42.329Z,7.88
2022-09-20T03:55:22.632Z,9.70
2022-09-20T03:58:17.076Z,9.85
2022-09-20T04:01:03.073Z,5.05
2022-09-20T04:04:00.273Z,10.00
2022-09-20T04:06:54.254Z,6.35
2022-09-20T04:10:01.010Z,7.45
2022-09-20T04:12:50.262Z,8.95
2022-09-20T04:15:31.050Z,6.05
2022-09-20T04:18:19.782Z,8.75
2022-09-20T04:21:03.874Z,4.28
2022-09-20T04:23:42.700Z,6.47
2022-09-20T04:26:09.246Z,10.43
2022-09-20T04:29:01.928Z,8.95
2022-09-20T04:32:00.641Z,9.20
2022-09-20T04:35:05.808Z,8.65
2022-09-20T04:40:13.393Z,7.05
2022-09-20T04:43:10.374Z,8.00
2022-09-20T04:45:58.282Z,8.20
2022-09-20T04:48:42.295Z,8.68
2022-09-20T04:51:33.741Z,9.15
2022-09-20T04:54:22.142Z,6.40
2022-09-20T04:57:05.651Z,9.27
2022-09-20T04:59:57.593Z,8.47
2022-09-20T05:02:40.016Z,8.82
2022-09-20T05:05:28.526Z,11.32
2022-09-20T05:08:26.988Z,10.05
2022-09-20T05:11:12.240Z,11.80
2022-09-20T05:14:17.017Z,9.82
2022-09-20T05:17:07.857Z,9.82
2022-09-20T05:19:58.488Z,9.05
2022-09-20T05:23:27.673Z,12.38
2022-09-20T05:26:24.778Z,10.43
2022-09-20T05:29:24.507Z,11.13
2022-09-20T05:32:08.545Z,11.88
2022-09-20T05:34:53.733Z,11.43
2022-09-20T05:37:38.934Z,9.82
2022-09-20T05:40:16.233Z,9.85
2022-09-20T05:42:55.128Z,9.38
2022-09-20T05:45:49.849Z,9.50
2022-09-20T05:51:47.241Z,10.70
2022-09-20T05:54:32.130Z,9.68
2022-09-20T05:57:20.431Z,11.15
2022-09-20T06:00:02.840Z,10.68
2022-09-20T06:02:56.842Z,11.82
2022-09-20T06:05:49.644Z,9.35
2022-09-20T06:08:23.383Z,9.18
2022-09-20T06:11:13.191Z,8.80
2022-09-20T06:13:45.658Z,10.05
2022-09-20T06:16:42.261Z,10.15
2022-09-20T06:19:31.893Z,9.20
2022-09-20T06:22:25.579Z,11.30
2022-09-20T06:25:02.003Z,9.43
2022-09-20T06:27:35.646Z,9.18
2022-09-20T06:30:06.370Z,10.27
2022-09-20T06:32:34.609Z,9.70
2022-09-20T06:35:02.702Z,13.30
2022-09-20T06:38:07.761Z,12.55
2022-09-20T06:43:24.358Z,9.65
2022-09-20T06:45:50.989Z,11.18
2022-09-20T06:48:19.200Z,8.95
2022-09-20T06:50:45.673Z,10.43
2022-09-20T06:53:18.226Z,10.88
2022-09-20T06:55:45.827Z,7.47
2022-09-20T06:58:12.756Z,9.18
2022-09-20T07:00:39.905Z,8.27
2022-09-20T07:03:07.090Z,10.57
2022-09-20T07:05:33.533Z,9.57
2022-09-20T07:08:01.386Z,7.68
2022-09-20T07:10:28.464Z,10.13
2022-09-20T07:13:02.410Z,11.18
2022-09-20T07:15:31.120Z,11.10
2022-09-20T07:17:57.655Z,9.38
2022-09-20T07:20:24.329Z,10.57
2022-09-20T07:22:51.643Z,11.77
2022-09-20T07:25:18.275Z,13.57
2022-09-20T07:27:46.440Z,11.40
2022-09-20T07:30:17.094Z,9.57
2022-09-20T07:32:43.766Z,10.73
2022-09-20T07:35:11.725Z,12.45
2022-09-20T07:37:41.303Z,9.40
2022-09-20T07:40:10.597Z,12.25
2022-09-20T07:42:37.215Z,9.52
2022-09-20T07:45:04.489Z,10.65
2022-09-20T07:47:35.426Z,11.75
2022-09-20T07:50:02.887Z,10.07
2022-09-20T07:52:29.502Z,9.95
2022-09-20T07:54:56.258Z,13.02
2022-09-20T07:57:23.032Z,8.40
2022-09-20T07:59:49.554Z,10.60
2022-09-20T08:02:16.853Z,9.80
2022-09-20T08:04:43.901Z,8.80
2022-09-20T08:07:10.765Z,10.25
2022-09-20T08:09:37.243Z,13.90
2022-09-20T08:14:52.452Z,10.95
2022-09-20T08:17:19.404Z,11.77
2022-09-20T08:19:46.080Z,13.60
2022-09-20T08:22:13.055Z,9.63
2022-09-20T08:24:39.607Z,12.75
2022-09-20T08:27:06.212Z,13.30
2022-09-20T08:29:32.813Z,12.18
2022-09-20T08:32:01.426Z,11.05
2022-09-20T08:34:28.183Z,13.75
2022-09-20T08:36:56.531Z,11.57
2022-09-20T08:42:24.072Z,10.82
2022-09-20T08:45:04.914Z,13.30
2022-09-20T08:47:35.644Z,10.88
2022-09-20T08:50:09.522Z,10.52
2022-09-20T08:52:39.791Z,13.60
2022-09-20T08:55:22.681Z,11.02
2022-09-20T08:57:51.960Z,9.95
2022-09-20T09:00:26.012Z,10.43
2022-09-20T09:02:57.065Z,13.30
2022-09-20T09:05:36.629Z,14.25
2022-09-20T09:08:09.210Z,12.05
2022-09-20T09:10:45.911Z,16.98
2022-09-20T09:13:30.010Z,13.13
2022-09-20T09:16:05.456Z,14.13
2022-09-20T09:18:35.924Z,13.32
2022-09-20T09:21:06.066Z,14.50
2022-09-20T09:23:41.199Z,12.80
2022-09-20T09:26:16.409Z,14.63
2022-09-20T09:28:44.022Z,13.75
2022-09-20T09:31:23.362Z,19.58
2022-09-20T09:33:49.967Z,11.13
2022-09-20T09:36:22.521Z,13.07
2022-09-20T09:38:49.390Z,13.52
2022-09-20T09:41:26.101Z,15.30
2022-09-20T09:44:09.904Z,13.68
2022-09-20T09:46:40.010Z,12.73
2022-09-20T09:49:22.699Z,11.75
2022-09-20T09:52:14.689Z,15.05
2022-09-20T09:54:46.942Z,11.15
2022-09-20T09:57:24.109Z,13.20
2022-09-20T10:00:01.938Z,13.38
2022-09-20T10:02:55.713Z,11.38
2022-09-20T10:05:29.524Z,11.55
2022-09-20T10:08:08.017Z,11.80
2022-09-20T10:11:00.741Z,14.85
2022-09-20T10:13:40.730Z,14.35
2022-09-20T10:16:21.026Z,9.55
2022-09-20T10:19:13.013Z,11.25
2022-09-20T10:21:48.698Z,11.50
2022-09-20T10:24:34.400Z,11.82
2022-09-20T10:27:27.072Z,12.80
2022-09-20T10:30:02.774Z,11.68
2022-09-20T10:33:06.875Z,14.30
2022-09-20T10:35:55.717Z,12.57
2022-09-20T10:38:30.111Z,10.90
2022-09-20T10:41:39.034Z,15.73
2022-09-20T10:44:16.641Z,11.90
2022-09-20T10:47:04.319Z,12.07
2022-09-20T10:49:50.377Z,11.23
2022-09-20T10:52:40.250Z,11.98
2022-09-20T10:55:07.198Z,9.52
2022-09-20T10:57:55.655Z,11.20
2022-09-20T11:00:24.622Z,11.68
2022-09-20T11:03:22.565Z,8.95
2022-09-20T11:05:57.888Z,12.93
2022-09-20T11:08:28.636Z,11.57
2022-09-20T11:10:56.950Z,8.20
2022-09-20T11:13:42.448Z,9.88
2022-09-20T11:16:16.725Z,9.90
2022-09-20T11:19:19.629Z,9.68
2022-09-20T11:21:52.722Z,11.93
2022-09-20T11:24:36.320Z,8.88
2022-09-20T11:27:14.151Z,13.50
2022-09-20T11:29:50.055Z,14.10
2022-09-20T11:32:24.570Z,9.38
2022-09-20T11:34:55.622Z,9.73
2022-09-20T11:37:25.295Z,8.55
2022-09-20T11:39:55.490Z,11.68
2022-09-20T11:42:34.150Z,7.78
2022-09-20T11:45:00.757Z,13.25
2022-09-20T11:47:55.572Z,10.23
2022-09-20T11:50:47.533Z,12.60
2022-09-20T11:53:42.984Z,9.55
2022-09-20T11:56:28.754Z,11.88
2022-09-20T11:58:59.565Z,8.82
2022-09-20T12:01:28.956Z,10.25
2022-09-20T12:04:20.959Z,8.13
2022-09-20T12:06:47.488Z,11.02
2022-09-20T12:09:33.212Z,7.80
2022-09-20T12:12:30.943Z,11.82
2022-09-20T12:15:00.265Z,9.20
2022-09-20T12:17:48.412Z,9.95
2022-09-20T12:20:34.616Z,12.10
2022-09-20T12:23:44.422Z,11.25
2022-09-20T12:26:13.313Z,12.93
2022-09-20T12:28:58.728Z,10.38
2022-09-20T12:31:26.127Z,9.18
2022-09-20T12:34:11.795Z,13.88
2022-09-20T12:36:40.312Z,8.00
2022-09-20T12:39:21.829Z,7.90
2022-09-20T12:41:59.036Z,11.55
2022-09-20T12:44:42.966Z,10.30
2022-09-20T12:47:12.254Z,10.77
2022-09-20T12:50:06.722Z,12.85
2022-09-20T12:52:57.698Z,13.88
2022-09-20T12:55:32.799Z,10.27
2022-09-20T12:58:09.866Z,9.00
2022-09-20T13:00:45.650Z,9.30
2022-09-20T13:03:15.365Z,8.73
2022-09-20T13:05:47.375Z,7.80
2022-09-20T13:08:27.129Z,14.98
2022-09-20T13:11:17.910Z,12.82
2022-09-20T13:13:51.978Z,11.23
2022-09-20T13:16:24.065Z,9.68
2022-09-20T13:19:01.008Z,6.93
2022-09-20T13:21:28.378Z,11.07
2022-09-20T13:23:55.339Z,8.88
2022-09-20T13:26:30.014Z,9.13
2022-09-20T13:28:59.061Z,10.32
2022-09-20T13:31:28.214Z,11.80
2022-09-20T13:33:55.077Z,7.78
2022-09-20T13:36:27.658Z,6.82
2022-09-20T13:38:56.818Z,7.57
2022-09-20T13:41:24.448Z,14.40
2022-09-20T13:43:51.424Z,5.30
2022-09-20T13:46:29.923Z,8.30
2022-09-20T13:49:20.623Z,12.18
2022-09-20T13:51:48.892Z,8.65
2022-09-20T13:54:31.731Z,7.38
2022-09-20T13:57:04.225Z,9.85
2022-09-20T13:59:35.535Z,13.15
2022-09-20T14:02:03.322Z,7.82
2022-09-20T14:04:31.600Z,9.77
2022-09-20T14:07:00.670Z,10.73
2022-09-20T14:09:35.863Z,12.95
2022-09-20T14:12:05.137Z,8.80
2022-09-20T14:14:33.089Z,13.90
2022-09-20T14:17:01.665Z,7.88
2022-09-20T14:19:37.030Z,9.25
2022-09-20T14:22:05.074Z,8.02
2022-09-20T14:24:37.088Z,7.72
2022-09-20T14:27:17.856Z,9.38
2022-09-20T14:29:44.297Z,11.63
2022-09-20T14:32:26.575Z,9.77
2022-09-20T14:34:58.777Z,10.15
2022-09-20T14:37:28.841Z,9.45
2022-09-20T14:39:57.619Z,9.93
2022-09-20T14:42:45.410Z,13.00
2022-09-20T14:45:30.789Z,12.05
2022-09-20T14:47:58.890Z,8.25
2022-09-20T14:50:31.579Z,10.35
2022-09-20T14:53:03.770Z,8.05
2022-09-20T14:55:36.435Z,5.25
2022-09-20T14:58:13.505Z,11.00
2022-09-20T15:00:49.684Z,10.73
2022-09-20T15:03:23.651Z,9.75
2022-09-20T15:05:50.890Z,8.60
2022-09-20T15:08:17.812Z,6.95
2022-09-20T15:10:44.358Z,11.40
2022-09-20T15:13:11.433Z,7.47
2022-09-20T15:15:38.120Z,9.63
2022-09-20T15:18:15.409Z,8.23
2022-09-20T15:20:41.914Z,8.05
2022-09-20T15:23:08.581Z,7.57
2022-09-20T15:25:35.112Z,6.53
2022-09-20T15:28:01.691Z,7.95
2022-09-20T15:30:28.556Z,6.53
2022-09-20T15:32:56.892Z,4.72
2022-09-20T15:35:26.178Z,10.65
2022-09-20T15:37:52.644Z,5.72
2022-09-20T15:40:19.289Z,8.98
2022-09-20T15:42:45.899Z,6.40
2022-09-20T15:45:12.540Z,5.25
2022-09-20T15:47:39.880Z,6.53
2022-09-20T15:50:10.699Z,9.45
2022-09-20T15:52:42.484Z,8.05
2022-09-20T15:55:09.256Z,6.85
2022-09-20T15:57:35.928Z,7.38
2022-09-20T16:00:02.837Z,7.30
2022-09-20T16:02:35.156Z,7.93
2022-09-20T16:05:01.997Z,7.05
2022-09-20T16:07:28.571Z,9.57
2022-09-20T16:09:56.091Z,7.15
2022-09-20T16:12:24.540Z,7.15
2022-09-20T16:14:51.455Z,6.53
2022-09-20T16:17:18.473Z,3.72
2022-09-20T16:19:48.038Z,7.25
2022-09-20T16:22:14.622Z,5.95
2022-09-20T16:24:41.124Z,7.30
2022-09-20T16:27:08.464Z,7.18
2022-09-20T16:29:35.077Z,4.85
2022-09-20T16:32:03.646Z,5.47
2022-09-20T16:34:32.862Z,7.35
2022-09-20T16:37:17.563Z,7.05
2022-09-20T16:39:44.345Z,9.93
2022-09-20T16:42:12.855Z,8.65
2022-09-20T16:44:42.631Z,5.60
2022-09-20T16:47:18.156Z,6.40
2022-09-20T16:49:47.297Z,8.93
2022-09-20T16:52:14.514Z,7.63
2022-09-20T16:54:41.023Z,6.70
2022-09-20T16:57:08.014Z,7.93
2022-09-20T16:59:34.535Z,9.57
2022-09-20T17:02:01.039Z,7.80
2022-09-20T17:04:27.584Z,9.18
2022-09-20T17:06:54.116Z,7.97
2022-09-20T17:09:20.953Z,7.72
2022-09-20T17:11:50.079Z,6.70
2022-09-20T17:14:19.024Z,6.15
2022-09-20T17:16:48.051Z,8.05
2022-09-20T17:19:19.443Z,7.20
2022-09-20T17:21:51.691Z,6.53
2022-09-20T17:24:22.093Z,6.20
2022-09-20T17:26:50.285Z,6.50
2022-09-20T17:29:18.227Z,6.07
2022-09-20T17:31:51.546Z,8.25
2022-09-20T17:34:21.803Z,5.35
2022-09-20T17:36:50.217Z,5.78
2022-09-20T17:39:16.843Z,5.82
2022-09-20T17:41:45.519Z,4.93
2022-09-20T17:44:12.419Z,6.18
2022-09-20T17:46:41.654Z,4.75
2022-09-20T17:49:14.913Z,6.05
2022-09-20T17:51:43.804Z,9.20
2022-09-20T17:54:13.771Z,13.48
2022-09-20T17:56:42.580Z,9.93
2022-09-20T17:59:10.609Z,10.95
2022-09-20T18:01:38.194Z,10.35
2022-09-20T18:04:06.216Z,12.55
2022-09-20T18:06:44.124Z,19.40
2022-09-20T18:09:15.176Z,23.27
2022-09-20T18:11:48.727Z,25.33
2022-09-20T18:14:17.280Z,24.00
2022-09-20T18:16:45.460Z,25.10
2022-09-20T18:19:13.096Z,19.45
2022-09-20T18:21:40.870Z,19.98
2022-09-20T18:24:10.160Z,15.00
2022-09-20T18:26:38.274Z,16.30
2022-09-20T18:29:09.414Z,15.82
2022-09-20T18:31:43.051Z,17.27
2022-09-20T18:34:12.628Z,14.10
2022-09-20T18:36:42.226Z,14.00
2022-09-20T18:39:08.839Z,12.68
2022-09-20T18:41:37.692Z,10.93
2022-09-20T18:44:07.591Z,10.60
2022-09-20T18:46:37.831Z,8.65
2022-09-20T18:49:07.147Z,10.57
2022-09-20T18:51:38.561Z,8.65
2022-09-20T18:54:06.201Z,8.27
2022-09-20T18:56:34.848Z,8.48
2022-09-20T18:59:07.812Z,10.73
2022-09-20T19:02:25.702Z,8.90
2022-09-20T19:05:11.892Z,11.90
2022-09-20T19:20:53.488Z,8.77
2022-09-20T19:24:03.051Z,9.65
2022-09-20T19:26:31.894Z,7.97
2022-09-20T19:29:00.468Z,7.70
2022-09-20T19:40:01.556Z,10.80
2022-09-20T19:47:01.605Z,9.38
2022-09-20T19:55:47.772Z,10.90
2022-09-20T19:58:15.012Z,7.85
2022-09-20T20:09:18.827Z,7.50
2022-09-20T20:16:20.760Z,11.15
2022-09-20T20:19:08.520Z,9.52
2022-09-20T20:21:52.075Z,10.32
2022-09-20T20:24:35.072Z,8.57
2022-09-20T20:27:03.773Z,5.90
2022-09-20T20:29:30.904Z,8.00
2022-09-20T20:31:57.717Z,6.75
2022-09-20T20:34:26.578Z,9.85
2022-09-20T20:37:00.801Z,8.18
2022-09-20T20:39:29.652Z,8.52
2022-09-20T20:42:00.243Z,10.18
2022-09-20T20:44:29.987Z,8.60
2022-09-20T20:46:56.817Z,6.63
2022-09-20T20:49:23.587Z,8.55
2022-09-20T20:51:50.098Z,8.77
2022-09-20T20:54:16.905Z,8.40
2022-09-20T21:00:48.580Z,8.60
2022-09-20T21:03:15.053Z,8.85
2022-09-20T21:05:41.527Z,5.43
2022-09-20T21:12:19.972Z,9.27
2022-09-20T21:14:46.538Z,11.15
2022-09-20T21:17:13.103Z,6.93
2022-09-20T21:19:40.081Z,10.55
2022-09-20T21:22:06.610Z,8.52
2022-09-20T21:24:33.151Z,7.38
2022-09-20T21:26:59.679Z,6.32
2022-09-20T21:29:34.489Z,7.25
2022-09-20T21:32:01.221Z,7.82
2022-09-20T21:34:27.717Z,6.30
2022-09-20T21:36:57.336Z,8.55
2022-09-20T21:39:28.474Z,7.25
2022-09-20T21:41:59.814Z,9.18
2022-09-20T21:44:30.971Z,7.03
2022-09-20T21:47:02.014Z,8.98
2022-09-20T21:49:34.613Z,9.50
2022-09-20T21:52:06.047Z,9.02
2022-09-20T21:54:36.318Z,7.85
2022-09-20T21:57:05.989Z,9.98
2022-09-20T21:59:34.709Z,8.00
2022-09-20T22:02:01.204Z,9.95
2022-09-20T22:04:29.129Z,8.40
2022-09-20T22:06:55.753Z,11.30
2022-09-20T22:09:24.059Z,7.65
2022-09-20T22:11:50.636Z,8.60
2022-09-20T22:14:19.387Z,8.82
2022-09-20T22:16:47.925Z,7.68
2022-09-20T22:19:17.003Z,7.40
2022-09-20T22:21:46.190Z,9.35
2022-09-20T22:24:14.841Z,8.70
2022-09-20T22:26:47.254Z,8.68
2022-09-20T22:29:14.777Z,10.10
2022-09-20T22:31:47.228Z,10.10
2022-09-20T22:34:16.840Z,11.13
2022-09-20T22:36:43.695Z,8.40
2022-09-20T22:39:11.298Z,9.77
2022-09-20T22:41:39.372Z,9.70
2022-09-20T22:44:06.219Z,8.75
2022-09-20T22:46:33.602Z,7.32
2022-09-20T22:49:00.397Z,9.00
2022-09-20T22:51:30.768Z,8.25
2022-09-20T22:53:57.418Z,7.68
2022-09-20T22:56:31.577Z,8.23
2022-09-20T23:01:31.666Z,9.98
2022-09-20T23:04:00.894Z,7.72
2022-09-20T23:06:33.375Z,10.95
2022-09-20T23:09:02.100Z,8.85
2022-09-20T23:11:29.790Z,7.65
2022-09-20T23:14:01.467Z,7.93
2022-09-20T23:16:30.317Z,7.93
2022-09-20T23:18:58.909Z,7.22
2022-09-20T23:21:25.932Z,9.40
2022-09-20T23:23:54.615Z,7.03
2022-09-20T23:26:22.221Z,7.65
2022-09-20T23:28:57.247Z,10.15
2022-09-20T23:31:24.912Z,10.27
2022-09-20T23:33:57.687Z,7.45
2022-09-20T23:36:25.734Z,9.05
2022-09-20T23:38:52.325Z,8.27
2022-09-20T23:41:21.037Z,9.50
2022-09-20T23:43:48.102Z,7.85
2022-09-20T23:46:17.453Z,7.63
2022-09-20T23:48:44.806Z,6.97
2022-09-20T23:51:14.003Z,7.15
2022-09-20T23:53:42.546Z,8.95
2022-09-20T23:56:10.237Z,10.57
2022-09-20T23:58:38.673Z,7.38
